createdAt,value
2022-07-25T00:00:25.102Z,92149.31
2022-07-25T00:02:51.661Z,92150.66
2022-07-25T00:05:18.352Z,92153.44
2022-07-25T00:07:44.933Z,92147.84
2022-07-25T00:10:11.929Z,92151.97
2022-07-25T00:12:38.604Z,92153.44
2022-07-25T00:15:05.931Z,92145.63
2022-07-25T00:17:32.499Z,92146.38
2022-07-25T00:19:59.029Z,92144.91
2022-07-25T00:22:25.839Z,92143.56
2022-07-25T00:24:52.450Z,92150.53
2022-07-25T00:27:18.979Z,92150.53
2022-07-25T00:29:45.608Z,92144.91
2022-07-25T00:32:12.204Z,92149.06
2022-07-25T00:34:38.844Z,92139.31
2022-07-25T00:37:05.486Z,92144.19
2022-07-25T00:39:31.995Z,92143.44
2022-07-25T00:42:02.359Z,92143.44
2022-07-25T00:44:31.201Z,92143.44
2022-07-25T00:46:58.810Z,92142.75
2022-07-25T00:49:26.066Z,92143.44
2022-07-25T00:51:54.290Z,92142.00
2022-07-25T00:54:21.909Z,92149.06
2022-07-25T00:56:49.535Z,92148.34
2022-07-25T00:59:17.193Z,92149.78
2022-07-25T01:01:45.682Z,92142.00
2022-07-25T01:04:12.305Z,92142.75
2022-07-25T01:06:38.869Z,92139.81
2022-07-25T01:09:05.452Z,92153.22
2022-07-25T01:11:31.986Z,92146.16
2022-07-25T01:13:58.626Z,92146.16
2022-07-25T01:16:25.357Z,92139.19
2022-07-25T01:18:52.040Z,92146.16
2022-07-25T01:21:18.617Z,92140.53
2022-07-25T01:23:45.210Z,92139.81
2022-07-25T01:26:11.767Z,92135.66
2022-07-25T01:28:38.416Z,92131.41
2022-07-25T01:31:05.187Z,92135.66
2022-07-25T01:33:31.831Z,92130.66
2022-07-25T01:35:58.384Z,92129.31
2022-07-25T01:38:24.953Z,92127.88
2022-07-25T01:40:51.619Z,92123.59
2022-07-25T01:43:18.679Z,92132.03
2022-07-25T01:45:45.263Z,92132.03
2022-07-25T01:48:11.844Z,92133.47
2022-07-25T01:50:38.399Z,92125.06
2022-07-25T01:53:05.355Z,92126.50
2022-07-25T01:55:31.911Z,92127.13
2022-07-25T01:57:58.959Z,92132.03
2022-07-25T02:00:26.502Z,92123.59
2022-07-25T02:03:11.623Z,92129.22
2022-07-25T02:05:38.220Z,92126.41
2022-07-25T02:08:05.075Z,92126.41
2022-07-25T02:10:31.968Z,92132.03
2022-07-25T02:12:58.581Z,92134.72
2022-07-25T02:15:25.172Z,92129.81
2022-07-25T02:17:51.764Z,92131.91
2022-07-25T02:20:18.305Z,92129.81
2022-07-25T02:22:44.846Z,92124.94
2022-07-25T02:25:11.394Z,92130.56
2022-07-25T02:27:38.204Z,92123.50
2022-07-25T02:30:05.801Z,92119.34
2022-07-25T02:32:32.361Z,92123.50
2022-07-25T02:34:58.920Z,92117.88
2022-07-25T02:37:25.523Z,92117.16
2022-07-25T02:39:52.077Z,92120.69
2022-07-25T02:42:18.600Z,92116.41
2022-07-25T02:44:45.160Z,92122.75
2022-07-25T02:47:11.702Z,92124.84
2022-07-25T02:49:38.240Z,92116.41
2022-07-25T02:52:05.027Z,92115.72
2022-07-25T02:54:31.616Z,92122.03
2022-07-25T02:56:58.164Z,92116.41
2022-07-25T02:59:24.741Z,92116.41
2022-07-25T03:01:58.576Z,92116.41
2022-07-25T03:04:25.319Z,92110.81
2022-07-25T03:06:51.983Z,92116.41
2022-07-25T03:09:19.122Z,92112.91
2022-07-25T03:11:45.555Z,92105.19
2022-07-25T03:14:12.241Z,92108.72
2022-07-25T03:16:38.867Z,92107.28
2022-07-25T03:19:10.225Z,92104.47
2022-07-25T03:21:39.805Z,92103.00
2022-07-25T03:24:06.782Z,92103.75
2022-07-25T03:26:33.416Z,92098.88
2022-07-25T03:28:59.957Z,92098.13
2022-07-25T03:31:26.558Z,92098.13
2022-07-25T03:33:53.129Z,92105.81
2022-07-25T03:36:19.678Z,92099.47
2022-07-25T03:38:46.209Z,92090.34
2022-07-25T03:41:14.142Z,92096.66
2022-07-25T03:43:40.769Z,92093.16
2022-07-25T03:46:07.340Z,92095.22
2022-07-25T03:48:34.049Z,92086.81
2022-07-25T03:51:04.990Z,92092.41
2022-07-25T03:53:33.962Z,92091.06
2022-07-25T03:56:00.479Z,92095.22
2022-07-25T03:58:27.037Z,92095.22
2022-07-25T04:00:53.605Z,92100.84
2022-07-25T04:03:20.536Z,92098.03
2022-07-25T04:05:47.717Z,92100.84
2022-07-25T04:08:14.549Z,92093.78
2022-07-25T04:10:41.081Z,92099.38
2022-07-25T04:13:08.391Z,92093.84
2022-07-25T04:15:34.944Z,92098.03
2022-07-25T04:18:01.463Z,92095.97
2022-07-25T04:20:29.332Z,92090.97
2022-07-25T04:22:55.943Z,92097.28
2022-07-25T04:25:22.543Z,92094.47
2022-07-25T04:27:49.121Z,92099.38
2022-07-25T04:30:24.573Z,92086.69
2022-07-25T04:32:51.656Z,92093.03
2022-07-25T04:35:18.176Z,92093.03
2022-07-25T04:37:44.695Z,92093.03
2022-07-25T04:40:11.783Z,92086.69
2022-07-25T04:42:38.310Z,92089.50
2022-07-25T04:45:05.338Z,92093.03
2022-07-25T04:47:31.965Z,92093.78
2022-07-25T04:49:58.576Z,92091.56
2022-07-25T04:52:25.132Z,92092.31
2022-07-25T04:54:51.644Z,92086.69
2022-07-25T04:57:18.200Z,92093.03
2022-07-25T04:59:44.763Z,92093.78
2022-07-25T05:02:11.783Z,92092.31
2022-07-25T05:04:43.379Z,92088.16
2022-07-25T05:07:11.736Z,92092.53
2022-07-25T05:09:38.307Z,92088.34
2022-07-25T05:12:04.951Z,92082.75
2022-07-25T05:14:31.585Z,92079.94
2022-07-25T05:16:58.107Z,92075.69
2022-07-25T05:19:24.700Z,92074.22
2022-07-25T05:21:51.233Z,92074.94
2022-07-25T05:24:17.971Z,92078.50
2022-07-25T05:26:44.540Z,92074.22
2022-07-25T05:29:11.085Z,92074.31
2022-07-25T05:31:37.741Z,92074.22
2022-07-25T05:34:05.750Z,92067.16
2022-07-25T05:36:32.501Z,92072.78
2022-07-25T05:38:59.393Z,92072.78
2022-07-25T05:41:26.107Z,92060.09
2022-07-25T05:43:52.703Z,92062.91
2022-07-25T05:46:19.320Z,92067.78
2022-07-25T05:48:45.947Z,92067.78
2022-07-25T05:51:12.974Z,92069.84
2022-07-25T05:53:39.548Z,92065.59
2022-07-25T05:56:06.292Z,92055.00
2022-07-25T05:58:33.139Z,92057.19
2022-07-25T06:00:59.689Z,92061.34
2022-07-25T06:03:26.379Z,92055.00
2022-07-25T06:05:55.152Z,92050.84
2022-07-25T06:08:22.521Z,92043.06
2022-07-25T06:10:49.170Z,92047.31
2022-07-25T06:13:15.720Z,92045.22
2022-07-25T06:15:42.288Z,92041.69
2022-07-25T06:18:08.912Z,92044.50
2022-07-25T06:20:35.456Z,92040.25
2022-07-25T06:23:03.801Z,92031.09
2022-07-25T06:25:30.608Z,92032.56
2022-07-25T06:27:58.378Z,92027.66
2022-07-25T06:30:25.075Z,92022.78
2022-07-25T06:32:51.630Z,92025.59
2022-07-25T06:35:18.788Z,92024.22
2022-07-25T06:37:45.379Z,92025.06
2022-07-25T06:40:12.367Z,92018.72
2022-07-25T06:42:44.515Z,92015.22
2022-07-25T06:45:12.531Z,92011.03
2022-07-25T06:47:40.757Z,92004.69
2022-07-25T06:50:11.304Z,92003.34
2022-07-25T06:52:39.253Z,92001.25
2022-07-25T06:55:07.714Z,92004.06
2022-07-25T06:57:34.941Z,91995.56
2022-07-25T07:00:01.464Z,91988.47
2022-07-25T07:02:28.024Z,91992.03
2022-07-25T07:04:54.566Z,91985.69
2022-07-25T07:07:21.177Z,91989.97
2022-07-25T07:09:47.754Z,91985.78
2022-07-25T07:12:14.319Z,91982.97
2022-07-25T07:14:41.891Z,91977.38
2022-07-25T07:17:08.440Z,91971.75
2022-07-25T07:19:35.071Z,91969.06
2022-07-25T07:22:01.635Z,91974.66
2022-07-25T07:24:28.707Z,91970.50
2022-07-25T07:26:55.228Z,91964.19
2022-07-25T07:29:21.927Z,91969.06
2022-07-25T07:31:48.551Z,91964.78
2022-07-25T07:34:16.294Z,91958.56
2022-07-25T07:36:43.302Z,91957.84
2022-07-25T07:39:09.968Z,91949.41
2022-07-25T07:41:36.591Z,91944.53
2022-07-25T07:44:03.197Z,91945.25
2022-07-25T07:46:29.784Z,91942.44
2022-07-25T07:48:56.395Z,91931.22
2022-07-25T07:51:22.988Z,91932.69
2022-07-25T07:54:08.052Z,91925.59
2022-07-25T07:56:34.585Z,91924.88
2022-07-25T07:59:01.221Z,91925.59
2022-07-25T08:01:27.946Z,91919.28
2022-07-25T08:03:54.549Z,91920.00
2022-07-25T08:06:21.236Z,91921.47
2022-07-25T08:08:47.839Z,91914.38
2022-07-25T08:11:14.418Z,91908.06
2022-07-25T08:13:41.038Z,91908.75
2022-07-25T08:16:07.964Z,91891.94
2022-07-25T08:18:34.620Z,91890.59
2022-07-25T08:21:04.134Z,91891.94
2022-07-25T08:23:32.028Z,91886.31
2022-07-25T08:25:59.449Z,91880.69
2022-07-25T08:28:26.185Z,91875.09
2022-07-25T08:30:52.850Z,91869.47
2022-07-25T08:33:19.576Z,91872.28
2022-07-25T08:35:52.204Z,91871.56
2022-07-25T08:38:19.905Z,91857.53
2022-07-25T08:40:46.925Z,91863.88
2022-07-25T08:43:14.909Z,91857.53
2022-07-25T08:45:44.892Z,91857.53
2022-07-25T08:48:11.911Z,91851.19
2022-07-25T08:50:38.787Z,91845.59
2022-07-25T08:53:31.584Z,91849.84
2022-07-25T08:55:53.453Z,91844.22
2022-07-25T08:58:20.059Z,91839.97
2022-07-25T09:00:47.513Z,91839.97
2022-07-25T09:03:14.179Z,91833.63
2022-07-25T09:05:41.475Z,91828.75
2022-07-25T09:08:13.454Z,91828.75
2022-07-25T09:10:45.470Z,91825.94
2022-07-25T09:13:16.613Z,91823.88
2022-07-25T09:15:52.254Z,91823.13
2022-07-25T09:18:23.448Z,91817.53
2022-07-25T09:20:56.203Z,91811.91
2022-07-25T09:23:28.531Z,91807.66
2022-07-25T09:26:02.687Z,91805.56
2022-07-25T09:28:29.539Z,91799.22
2022-07-25T09:30:58.695Z,91797.78
2022-07-25T09:33:26.767Z,91797.78
2022-07-25T09:35:54.260Z,91794.97
2022-07-25T09:38:21.924Z,91792.91
2022-07-25T09:41:14.533Z,91780.94
2022-07-25T09:43:42.709Z,91781.69
2022-07-25T09:46:10.783Z,91786.56
2022-07-25T09:48:39.538Z,91780.94
2022-07-25T09:51:07.354Z,91775.34
2022-07-25T09:53:34.329Z,91768.28
2022-07-25T09:56:01.141Z,91770.47
2022-07-25T09:58:29.094Z,91766.94
2022-07-25T10:01:05.660Z,91758.50
2022-07-25T10:03:52.372Z,91758.50
2022-07-25T10:06:30.763Z,91756.44
2022-07-25T10:08:57.763Z,91752.91
2022-07-25T10:11:26.820Z,91752.91
2022-07-25T10:13:54.759Z,91747.28
2022-07-25T10:16:24.001Z,91740.22
2022-07-25T10:18:55.383Z,91747.28
2022-07-25T10:21:27.468Z,91734.63
2022-07-25T10:24:09.878Z,91740.22
2022-07-25T10:26:51.045Z,91734.63
2022-07-25T10:29:17.659Z,91719.84
2022-07-25T10:31:50.283Z,91717.06
2022-07-25T10:34:28.939Z,91717.78
2022-07-25T10:36:57.221Z,91712.19
2022-07-25T10:39:24.194Z,91712.19
2022-07-25T10:41:58.544Z,91698.16
2022-07-25T10:44:30.487Z,91695.34
2022-07-25T10:47:08.752Z,91683.38
2022-07-25T10:49:37.516Z,91691.81
2022-07-25T10:52:05.087Z,91689.00
2022-07-25T10:54:37.382Z,91686.94
2022-07-25T10:57:06.280Z,91684.72
2022-07-25T10:59:35.931Z,91677.03
2022-07-25T11:02:16.381Z,91672.91
2022-07-25T11:04:44.872Z,91671.44
2022-07-25T11:07:14.055Z,91667.28
2022-07-25T11:09:42.661Z,91665.81
2022-07-25T11:12:10.064Z,91665.81
2022-07-25T11:14:42.736Z,91665.81
2022-07-25T11:17:22.339Z,91660.22
2022-07-25T11:19:55.057Z,91657.50
2022-07-25T11:22:21.634Z,91658.22
2022-07-25T11:24:48.532Z,91656.22
2022-07-25T11:27:27.265Z,91647.91
2022-07-25T11:30:11.031Z,91646.56
2022-07-25T11:32:43.198Z,91641.00
2022-07-25T11:35:11.865Z,91642.47
2022-07-25T11:37:41.288Z,91639.03
2022-07-25T11:40:09.909Z,91634.84
2022-07-25T11:42:44.967Z,91626.44
2022-07-25T11:45:18.652Z,91629.97
2022-07-25T11:47:45.401Z,91624.38
2022-07-25T11:50:14.944Z,91622.28
2022-07-25T11:52:43.600Z,91620.22
2022-07-25T11:55:17.803Z,91616.06
2022-07-25T11:57:47.225Z,91611.91
2022-07-25T12:00:18.627Z,91613.34
2022-07-25T12:02:46.482Z,91613.44
2022-07-25T12:05:15.935Z,91609.19
2022-07-25T12:07:51.808Z,91607.75
2022-07-25T12:10:39.276Z,91606.31
2022-07-25T12:13:08.092Z,91599.22
2022-07-25T12:15:39.038Z,91599.09
2022-07-25T12:18:09.378Z,91589.25
2022-07-25T12:20:40.504Z,91586.34
2022-07-25T12:23:11.295Z,91587.69
2022-07-25T12:25:40.717Z,91584.88
2022-07-25T12:28:08.383Z,91580.66
2022-07-25T12:30:35.158Z,91577.84
2022-07-25T12:33:01.977Z,91576.41
2022-07-25T12:35:28.630Z,91569.34
2022-07-25T12:37:55.590Z,91569.34
2022-07-25T12:40:22.249Z,91563.72
2022-07-25T12:42:49.636Z,91558.09
2022-07-25T12:45:17.943Z,91568.59
2022-07-25T12:47:46.080Z,91562.28
2022-07-25T12:50:13.909Z,91562.28
2022-07-25T12:52:41.925Z,91555.22
2022-07-25T12:55:10.892Z,91556.69
2022-07-25T12:57:38.037Z,91555.22
2022-07-25T13:00:08.244Z,91544.00
2022-07-25T13:02:34.990Z,91546.78
2022-07-25T13:05:02.176Z,91537.69
2022-07-25T13:07:29.717Z,91539.84
2022-07-25T13:09:56.299Z,91538.38
2022-07-25T13:12:24.107Z,91538.38
2022-07-25T13:14:51.180Z,91529.97
2022-07-25T13:17:18.056Z,91532.75
2022-07-25T13:19:44.695Z,91534.13
2022-07-25T13:22:11.436Z,91538.38
2022-07-25T13:24:39.303Z,91531.34
2022-07-25T13:27:06.580Z,91527.16
2022-07-25T13:29:33.397Z,91524.34
2022-07-25T13:32:01.585Z,91524.34
2022-07-25T13:34:28.654Z,91527.16
2022-07-25T13:36:55.179Z,91523.66
2022-07-25T13:39:22.559Z,91521.53
2022-07-25T13:41:49.694Z,91520.09
2022-07-25T13:44:16.397Z,91507.44
2022-07-25T13:46:46.080Z,91513.75
2022-07-25T13:49:13.138Z,91507.44
2022-07-25T13:51:39.713Z,91501.81
2022-07-25T13:54:06.297Z,91497.66
2022-07-25T13:56:33.272Z,91493.41
2022-07-25T13:59:00.183Z,91479.38
2022-07-25T14:01:28.541Z,91480.09
2022-07-25T14:03:56.262Z,91486.44
2022-07-25T14:06:22.856Z,91490.59
2022-07-25T14:08:49.412Z,91474.47
2022-07-25T14:11:16.041Z,91465.34
2022-07-25T14:13:43.647Z,91471.69
2022-07-25T14:16:10.442Z,91466.06
2022-07-25T14:18:36.962Z,91465.34
2022-07-25T14:21:03.740Z,91469.59
2022-07-25T14:23:30.453Z,91462.53
2022-07-25T14:25:58.863Z,91454.13
2022-07-25T14:28:25.880Z,91451.31
2022-07-25T14:30:52.484Z,91454.13
2022-07-25T14:33:19.168Z,91444.34
2022-07-25T14:35:45.787Z,91449.22
2022-07-25T14:38:12.676Z,91442.88
2022-07-25T14:40:41.473Z,91440.09
2022-07-25T14:43:08.543Z,91438.75
2022-07-25T14:45:37.025Z,91431.66
2022-07-25T14:48:06.180Z,91426.06
2022-07-25T14:50:32.901Z,91426.06
2022-07-25T14:52:59.440Z,91422.56
2022-07-25T14:55:26.009Z,91423.25
2022-07-25T14:57:52.618Z,91423.25
2022-07-25T15:00:19.671Z,91411.31
2022-07-25T15:02:46.261Z,91412.03
2022-07-25T15:05:12.868Z,91412.75
2022-07-25T15:07:39.716Z,91409.22
2022-07-25T15:10:06.600Z,91403.63
2022-07-25T15:12:33.126Z,91409.22
2022-07-25T15:14:59.640Z,91402.25
2022-07-25T15:17:26.197Z,91418.38
2022-07-25T15:19:52.746Z,91417.63
2022-07-25T15:22:19.264Z,91417.63
2022-07-25T15:25:17.177Z,91418.38
2022-07-25T15:27:32.481Z,91413.50
2022-07-25T15:29:59.014Z,91409.22
2022-07-25T15:32:25.528Z,91412.03
2022-07-25T15:34:52.062Z,91412.03
2022-07-25T15:37:18.613Z,91417.63
2022-07-25T15:39:45.510Z,91417.63
2022-07-25T15:42:12.272Z,91416.94
2022-07-25T15:44:38.811Z,91421.19
2022-07-25T15:47:08.892Z,91421.81
2022-07-25T15:49:37.054Z,91430.31
2022-07-25T15:52:03.960Z,91423.97
2022-07-25T15:54:30.552Z,91420.44
2022-07-25T15:56:57.354Z,91423.97
2022-07-25T15:59:23.901Z,91421.81
2022-07-25T16:01:50.580Z,91428.88
2022-07-25T16:04:17.164Z,91431.66
2022-07-25T16:06:44.529Z,91428.88
2022-07-25T16:09:12.474Z,91434.47
2022-07-25T16:11:39.327Z,91442.88
2022-07-25T16:14:06.117Z,91442.88
2022-07-25T16:16:32.831Z,91456.91
2022-07-25T16:18:59.528Z,91512.34
2022-07-25T16:21:26.159Z,91534.03
2022-07-25T16:23:52.939Z,91564.91
2022-07-25T16:26:19.888Z,91587.44
2022-07-25T16:28:47.707Z,91601.56
2022-07-25T16:31:14.354Z,91626.81
2022-07-25T16:33:41.003Z,91650.72
2022-07-25T16:36:08.111Z,91681.56
2022-07-25T16:38:34.870Z,91708.91
2022-07-25T16:41:01.448Z,91705.38
2022-07-25T16:43:28.031Z,91705.38
2022-07-25T16:45:54.615Z,91685.75
2022-07-25T16:48:21.727Z,91694.16
2022-07-25T16:50:48.295Z,91734.88
2022-07-25T16:53:14.920Z,91757.97
2022-07-25T16:55:41.500Z,91780.41
2022-07-25T16:58:08.048Z,91790.91
2022-07-25T17:00:34.642Z,91790.19
2022-07-25T17:03:01.265Z,91788.84
2022-07-25T17:05:28.020Z,91790.91
2022-07-25T17:07:59.515Z,91806.31
2022-07-25T17:10:26.719Z,91824.56
2022-07-25T17:12:53.557Z,91828.84
2022-07-25T17:15:21.112Z,91833.84
2022-07-25T17:17:47.706Z,91827.59
2022-07-25T17:20:14.822Z,91816.47
2022-07-25T17:22:41.488Z,91798.34
2022-07-25T17:25:08.359Z,91783.19
2022-07-25T17:27:35.395Z,91770.63
2022-07-25T17:30:02.208Z,91786.19
2022-07-25T17:32:30.218Z,91804.56
2022-07-25T17:34:57.508Z,91803.22
2022-07-25T17:37:24.430Z,91799.16
2022-07-25T17:39:51.202Z,91785.19
2022-07-25T17:42:22.331Z,91793.72
2022-07-25T17:44:52.637Z,91794.47
2022-07-25T17:47:19.240Z,91792.34
2022-07-25T17:49:46.275Z,91791.00
2022-07-25T17:52:12.977Z,91779.78
2022-07-25T17:54:42.646Z,91778.41
2022-07-25T17:57:09.682Z,91777.06
2022-07-25T17:59:36.475Z,91778.50
2022-07-25T18:02:03.636Z,91784.13
2022-07-25T18:04:30.146Z,91791.91
2022-07-25T18:06:57.189Z,91798.25
2022-07-25T18:09:24.290Z,91799.69
2022-07-25T18:11:51.013Z,91794.09
2022-07-25T18:14:17.582Z,91784.31
2022-07-25T18:16:45.638Z,91784.31
2022-07-25T18:19:13.044Z,91778.69
2022-07-25T18:21:39.695Z,91767.47
2022-07-25T18:24:07.276Z,91768.22
2022-07-25T18:26:34.638Z,91780.13
2022-07-25T18:29:01.089Z,91781.59
2022-07-25T18:31:27.701Z,91788.66
2022-07-25T18:33:54.316Z,91792.84
2022-07-25T18:36:20.857Z,91798.44
2022-07-25T18:38:48.644Z,91811.84
2022-07-25T18:41:31.006Z,91823.72
2022-07-25T18:43:57.878Z,91839.19
2022-07-25T18:46:25.033Z,91860.31
2022-07-25T18:48:51.641Z,91885.59
2022-07-25T18:51:18.399Z,91925.63
2022-07-25T18:53:48.290Z,91936.13
2022-07-25T18:56:16.406Z,91985.22
2022-07-25T18:58:43.589Z,92018.91
2022-07-25T19:01:10.215Z,92023.09
2022-07-25T19:03:37.629Z,92037.81
2022-07-25T19:06:04.585Z,92073.41
2022-07-25T19:08:32.022Z,92112.28
2022-07-25T19:10:58.625Z,92124.78
2022-07-25T19:13:47.895Z,92141.41
2022-07-25T19:16:11.953Z,92151.94
2022-07-25T19:18:39.331Z,92163.88
2022-07-25T19:21:06.455Z,92168.25
2022-07-25T19:23:33.602Z,92166.78
2022-07-25T19:26:01.723Z,92148.50
2022-07-25T19:28:29.064Z,92142.16
2022-07-25T19:30:57.033Z,92137.25
2022-07-25T19:33:24.361Z,92130.19
2022-07-25T19:35:51.094Z,92144.84
2022-07-25T19:38:19.548Z,92151.19
2022-07-25T19:40:46.719Z,92156.59
2022-07-25T19:43:13.211Z,92146.84
2022-07-25T19:45:39.859Z,92135.59
2022-07-25T19:48:07.090Z,92131.31
2022-07-25T19:50:33.563Z,92123.63
2022-07-25T19:53:01.543Z,92120.09
2022-07-25T19:55:28.615Z,92106.06
2022-07-25T19:57:55.167Z,92079.25
2022-07-25T20:00:22.042Z,92086.22
2022-07-25T20:02:48.815Z,92077.81
2022-07-25T20:05:17.190Z,92079.25
2022-07-25T20:07:43.719Z,92081.94
2022-07-25T20:10:10.739Z,92082.44
2022-07-25T20:12:38.476Z,92081.00
2022-07-25T20:15:05.806Z,92078.09
2022-07-25T20:17:32.388Z,92059.78
2022-07-25T20:19:59.065Z,92053.63
2022-07-25T20:22:26.235Z,92059.25
2022-07-25T20:24:52.874Z,92056.25
2022-07-25T20:27:19.463Z,92055.41
2022-07-25T20:29:46.325Z,92053.97
2022-07-25T20:32:12.875Z,92040.53
2022-07-25T20:34:39.560Z,92039.09
2022-07-25T20:37:06.070Z,92048.16
2022-07-25T20:39:32.681Z,92064.25
2022-07-25T20:41:59.312Z,92061.66
2022-07-25T20:44:25.859Z,92060.28
2022-07-25T20:46:52.476Z,92082.75
2022-07-25T20:49:19.123Z,92101.75
2022-07-25T20:51:48.763Z,92115.78
2022-07-25T20:54:19.319Z,92130.56
2022-07-25T20:56:45.874Z,92153.75
2022-07-25T20:59:12.581Z,92169.84
2022-07-25T21:01:40.081Z,92172.03
2022-07-25T21:04:07.875Z,92153.00
2022-07-25T21:06:34.667Z,92162.91
2022-07-25T21:09:04.111Z,92171.31
2022-07-25T21:11:30.780Z,92165.72
2022-07-25T21:13:57.297Z,92160.09
2022-07-25T21:16:23.962Z,92167.16
2022-07-25T21:18:50.528Z,92166.41
2022-07-25T21:21:17.631Z,92154.47
2022-07-25T21:23:44.249Z,92140.44
2022-07-25T21:26:12.356Z,92154.47
2022-07-25T21:28:38.899Z,92137.66
2022-07-25T21:31:05.522Z,92126.41
2022-07-25T21:33:32.541Z,92126.41
2022-07-25T21:35:59.328Z,92137.66
2022-07-25T21:38:28.255Z,92125.69
2022-07-25T21:40:57.385Z,92120.81
2022-07-25T21:43:24.639Z,92115.91
2022-07-25T21:45:51.410Z,92108.22
2022-07-25T21:48:21.368Z,92110.28
2022-07-25T21:50:49.285Z,92105.41
2022-07-25T21:53:17.189Z,92099.81
2022-07-25T21:55:43.808Z,92105.41
2022-07-25T21:58:10.427Z,92093.44
2022-07-25T22:00:45.262Z,92092.00
2022-07-25T22:03:12.476Z,92082.97
2022-07-25T22:05:39.440Z,92085.03
2022-07-25T22:08:06.130Z,92081.50
2022-07-25T22:10:33.586Z,92084.31
2022-07-25T22:13:00.448Z,92080.03
2022-07-25T22:15:27.056Z,92081.50
2022-07-25T22:17:53.833Z,92089.94
2022-07-25T22:20:20.844Z,92086.41
2022-07-25T22:22:48.695Z,92081.50
2022-07-25T22:25:16.502Z,92075.91
2022-07-25T22:27:43.849Z,92086.41
2022-07-25T22:30:14.854Z,92087.13
2022-07-25T22:32:45.698Z,92096.25
2022-07-25T22:35:12.647Z,92095.56
2022-07-25T22:37:39.495Z,92094.81
2022-07-25T22:40:06.576Z,92099.06
2022-07-25T22:42:33.170Z,92099.06
2022-07-25T22:44:59.717Z,92103.97
2022-07-25T22:47:26.264Z,92103.22
2022-07-25T22:49:52.832Z,92103.97
2022-07-25T22:52:19.388Z,92099.06
2022-07-25T22:54:45.932Z,92103.97
2022-07-25T22:57:12.508Z,92101.16
2022-07-25T22:59:39.039Z,92091.28
2022-07-25T23:02:05.567Z,92085.66
2022-07-25T23:04:32.174Z,92071.63
2022-07-25T23:06:58.831Z,92068.81
2022-07-25T23:09:25.359Z,92068.81
2022-07-25T23:12:02.588Z,92080.03
2022-07-25T23:14:29.144Z,92080.03
2022-07-25T23:17:14.115Z,92085.66
2022-07-25T23:19:40.616Z,92080.03
2022-07-25T23:22:07.133Z,92080.03
2022-07-25T23:24:37.584Z,92080.03
2022-07-25T23:27:05.231Z,92086.41
2022-07-25T23:29:31.647Z,92086.41
2022-07-25T23:31:58.308Z,92091.28
2022-07-25T23:34:24.915Z,92092.75
2022-07-25T23:36:51.486Z,92084.22
2022-07-25T23:39:18.027Z,92073.00
2022-07-25T23:41:44.693Z,92073.69
2022-07-25T23:44:11.332Z,92078.59
2022-07-25T23:46:38.588Z,92071.53
2022-07-25T23:49:07.083Z,92063.84
2022-07-25T23:51:33.892Z,92058.22
2022-07-25T23:54:00.465Z,92055.41
2022-07-25T23:56:27.270Z,92050.53
2022-07-25T23:58:53.941Z,92042.75
